Time;durP1;ratioP1;P1;durP2;ratioP2;P2;SDS_P1;SDS_P2;PMS_P1;PMS_P2;Temp;Humidity;BMP_temperature;BMP_pressure;BME280_temperature;BME280_humidity;BME280_pressure;Samples;Min_cycle;Max_cycle;Signal;HPM_P1;HPM_P2
2022/10/10 00:00:52;;;;;;;0.10;0.10;;;11.00;99.90;;;;;;5034471;28;20650;-78
2022/10/10 00:03:20;;;;;;;0.10;0.10;;;10.90;99.90;;;;;;5033742;28;20222;-78
2022/10/10 00:05:49;;;;;;;0.10;0.10;;;10.90;99.90;;;;;;5034568;28;20734;-78
2022/10/10 00:08:17;;;;;;;0.10;0.10;;;10.90;99.90;;;;;;5034801;28;20195;-75
2022/10/10 00:10:45;;;;;;;0.10;0.10;;;10.80;99.90;;;;;;5034878;28;20231;-77
2022/10/10 00:13:13;;;;;;;0.10;0.10;;;10.90;99.90;;;;;;5033731;28;20203;-77
2022/10/10 00:15:41;;;;;;;0.10;0.10;;;10.80;99.90;;;;;;5032263;28;20257;-76
2022/10/10 00:18:15;;;;;;;0.10;0.10;;;10.80;99.90;;;;;;5031564;28;20260;-77
2022/10/10 00:20:44;;;;;;;0.10;0.10;;;10.90;99.90;;;;;;5034297;28;20637;-77
2022/10/10 00:23:13;;;;;;;0.10;0.10;;;10.80;99.90;;;;;;5029159;28;20291;-76
2022/10/10 00:25:41;;;;;;;0.10;0.10;;;10.80;99.90;;;;;;5023569;28;20241;-76
2022/10/10 00:28:09;;;;;;;0.03;0.03;;;10.80;99.90;;;;;;5022675;28;20203;-76
2022/10/10 00:30:37;;;;;;;0.10;0.10;;;10.90;99.90;;;;;;5035114;28;20223;-76
2022/10/10 00:33:05;;;;;;;0.10;0.10;;;11.00;99.90;;;;;;5031399;28;20203;-76
2022/10/10 00:35:33;;;;;;;0.10;0.10;;;11.00;99.90;;;;;;5036998;28;20207;-78
2022/10/10 00:38:01;;;;;;;0.10;0.10;;;11.10;99.90;;;;;;5037331;28;20261;-76
2022/10/10 00:40:31;;;;;;;0.03;0.03;;;11.10;99.90;;;;;;5033075;28;20627;-76
2022/10/10 00:42:59;;;;;;;0.10;0.10;;;11.10;99.90;;;;;;5017305;28;20270;-74
2022/10/10 00:45:31;;;;;;;0.10;0.10;;;11.00;99.90;;;;;;5018557;28;20199;-76
2022/10/10 00:48:05;;;;;;;0.10;0.10;;;11.10;99.90;;;;;;5032514;28;20673;-76
2022/10/10 00:50:38;;;;;;;0.00;0.00;;;11.10;99.90;;;;;;5030889;28;20222;-76
2022/10/10 00:53:08;;;;;;;0.10;0.10;;;11.10;99.90;;;;;;5033397;28;20199;-76
2022/10/10 00:55:38;;;;;;;0.10;0.10;;;11.20;99.90;;;;;;5033945;28;20191;-76
2022/10/10 00:58:07;;;;;;;0.10;0.10;;;11.20;99.90;;;;;;5033243;28;20203;-75
2022/10/10 01:00:36;;;;;;;0.10;0.10;;;11.20;99.90;;;;;;5031976;28;20233;-75
2022/10/10 01:03:04;;;;;;;0.10;0.10;;;11.30;99.90;;;;;;5034010;28;20218;-76
2022/10/10 01:05:32;;;;;;;0.00;0.00;;;11.20;99.90;;;;;;5032972;28;20229;-75
2022/10/10 01:08:03;;;;;;;0.10;0.10;;;11.20;99.90;;;;;;5031129;28;20260;-76
2022/10/10 01:10:35;;;;;;;0.10;0.10;;;11.30;99.90;;;;;;5032441;28;20721;-76
2022/10/10 01:13:14;;;;;;;0.10;0.10;;;11.30;99.90;;;;;;5024831;28;20249;-76
2022/10/10 01:15:49;;;;;;;0.10;0.10;;;11.30;99.90;;;;;;5029026;28;20203;-76
2022/10/10 01:18:26;;;;;;;0.10;0.10;;;11.40;99.90;;;;;;5026790;28;20325;-77
2022/10/10 01:21:05;;;;;;;0.10;0.10;;;11.40;99.90;;;;;;5033392;28;20290;-76
2022/10/10 01:24:15;;;;;;;0.10;0.10;;;11.40;99.90;;;;;;5029500;28;20647;-75
2022/10/10 01:27:07;;;;;;;0.10;0.10;;;11.40;99.90;;;;;;5032271;28;20821;-75
2022/10/10 01:29:39;;;;;;;0.10;0.10;;;11.40;99.90;;;;;;5020289;28;20623;-76
2022/10/10 01:32:12;;;;;;;0.10;0.10;;;11.40;99.90;;;;;;5031226;28;20254;-76
2022/10/10 01:34:47;;;;;;;0.10;0.10;;;11.40;99.90;;;;;;5032929;28;20202;-75
2022/10/10 01:37:19;;;;;;;0.10;0.10;;;11.40;99.90;;;;;;5033185;28;20603;-78
2022/10/10 01:39:54;;;;;;;0.10;0.10;;;11.40;99.90;;;;;;5031016;28;20206;-76
2022/10/10 01:42:31;;;;;;;0.10;0.10;;;11.40;99.90;;;;;;5028384;28;20776;-77
2022/10/10 01:45:01;;;;;;;0.00;0.00;;;11.40;99.90;;;;;;5013522;28;20579;-76
2022/10/10 01:47:29;;;;;;;0.10;0.10;;;11.40;99.90;;;;;;5023417;28;23393;-77
2022/10/10 01:50:01;;;;;;;0.10;0.10;;;11.40;99.90;;;;;;5032992;28;20603;-76
2022/10/10 01:52:38;;;;;;;0.10;0.10;;;11.40;99.90;;;;;;5030849;28;20269;-76
2022/10/10 01:55:24;;;;;;;0.10;0.10;;;11.40;99.90;;;;;;5017833;28;20670;-76
2022/10/10 01:58:06;;;;;;;0.10;0.10;;;11.40;99.90;;;;;;5032192;28;20215;-75
2022/10/10 02:00:45;;;;;;;0.10;0.10;;;11.40;99.90;;;;;;5031592;28;20771;-75
2022/10/10 02:03:19;;;;;;;0.10;0.10;;;11.40;99.90;;;;;;5033034;28;20298;-75
2022/10/10 02:05:53;;;;;;;0.10;0.10;;;11.40;99.90;;;;;;5032269;28;20227;-77
2022/10/10 02:08:26;;;;;;;0.10;0.10;;;11.40;99.90;;;;;;5032233;28;20189;-75
2022/10/10 02:10:59;;;;;;;0.00;0.00;;;11.40;99.90;;;;;;5032496;28;20223;-75
2022/10/10 02:13:33;;;;;;;0.10;0.10;;;11.40;99.90;;;;;;5032648;28;20195;-75
2022/10/10 02:16:06;;;;;;;0.10;0.10;;;11.40;99.90;;;;;;5031956;28;20543;-77
2022/10/10 02:18:36;;;;;;;0.10;0.10;;;11.40;99.90;;;;;;5029014;28;20217;-76
2022/10/10 02:21:07;;;;;;;0.10;0.10;;;11.40;99.90;;;;;;5032268;28;20235;-76
2022/10/10 02:23:35;;;;;;;0.00;0.00;;;11.40;99.90;;;;;;5032446;28;20261;-77
2022/10/10 02:26:04;;;;;;;0.10;0.10;;;11.40;99.90;;;;;;5031210;28;20221;-77
2022/10/10 02:28:40;;;;;;;0.10;0.10;;;11.40;99.90;;;;;;5031917;28;20294;-75
2022/10/10 02:31:14;;;;;;;0.10;0.10;;;11.40;99.90;;;;;;5032162;28;20214;-75
2022/10/10 02:33:46;;;;;;;0.10;0.10;;;11.40;99.90;;;;;;5031318;28;20339;-75
2022/10/10 02:36:17;;;;;;;0.10;0.10;;;11.40;99.90;;;;;;5028991;28;20203;-76
2022/10/10 02:38:46;;;;;;;0.10;0.10;;;11.40;99.90;;;;;;5025542;28;20250;-75
2022/10/10 02:41:18;;;;;;;0.10;0.10;;;11.30;99.90;;;;;;5021325;28;20242;-75
2022/10/10 02:43:46;;;;;;;0.03;0.03;;;11.30;99.90;;;;;;5027072;28;20223;-76
2022/10/10 02:46:15;;;;;;;0.10;0.10;;;11.30;99.90;;;;;;5030092;28;20760;-75
2022/10/10 02:48:43;;;;;;;0.05;0.05;;;11.30;99.90;;;;;;5030668;28;20253;-76
2022/10/10 02:51:14;;;;;;;0.00;0.00;;;11.30;99.90;;;;;;5031261;28;20226;-77
2022/10/10 02:53:42;;;;;;;0.10;0.10;;;11.20;99.90;;;;;;5031932;28;20621;-77
2022/10/10 02:56:10;;;;;;;0.10;0.10;;;11.20;99.90;;;;;;5031186;28;20661;-79
2022/10/10 02:58:38;;;;;;;0.00;0.00;;;11.20;99.90;;;;;;5042401;28;20199;-77
2022/10/10 03:01:06;;;;;;;0.10;0.10;;;11.20;99.90;;;;;;5035085;28;20313;-75
2022/10/10 03:03:36;;;;;;;0.00;0.00;;;11.20;99.90;;;;;;5028561;28;20716;-75
2022/10/10 03:06:04;;;;;;;0.10;0.10;;;11.20;99.90;;;;;;5029512;28;20202;-77
2022/10/10 03:08:32;;;;;;;0.10;0.10;;;11.10;99.90;;;;;;5024787;28;20265;-77
2022/10/10 03:11:01;;;;;;;0.10;0.10;;;11.10;99.90;;;;;;5032233;28;20268;-77
2022/10/10 03:13:29;;;;;;;0.10;0.10;;;11.10;99.90;;;;;;5027153;28;20203;-77
2022/10/10 03:15:57;;;;;;;0.10;0.10;;;11.00;99.90;;;;;;5021322;28;20755;-77
2022/10/10 03:18:25;;;;;;;0.10;0.10;;;11.00;99.90;;;;;;5026897;28;20222;-77
2022/10/10 03:20:56;;;;;;;0.10;0.10;;;11.00;99.90;;;;;;5032396;28;20226;-78
2022/10/10 03:23:24;;;;;;;0.08;0.08;;;11.00;99.90;;;;;;5030092;28;20203;-77
2022/10/10 03:25:52;;;;;;;0.00;0.00;;;11.00;99.90;;;;;;5030203;28;20191;-77
2022/10/10 03:28:20;;;;;;;0.10;0.10;;;11.00;99.90;;;;;;5029263;28;20207;-76
2022/10/10 03:30:48;;;;;;;0.10;0.10;;;10.90;99.90;;;;;;5026044;28;20687;-75
2022/10/10 03:33:16;;;;;;;0.10;0.10;;;10.90;99.90;;;;;;5031586;28;20575;-75
2022/10/10 03:35:44;;;;;;;0.10;0.10;;;10.80;99.90;;;;;;5030445;28;20226;-75
2022/10/10 03:38:14;;;;;;;0.10;0.10;;;10.80;99.90;;;;;;5030129;28;20708;-77
2022/10/10 03:40:43;;;;;;;0.10;0.10;;;10.80;99.90;;;;;;5029873;28;20300;-77
2022/10/10 03:43:13;;;;;;;0.10;0.10;;;10.80;99.90;;;;;;5029569;28;20191;-75
2022/10/10 03:45:42;;;;;;;0.10;0.10;;;10.80;99.90;;;;;;5012952;28;20219;-76
2022/10/10 03:48:10;;;;;;;0.10;0.10;;;10.80;99.90;;;;;;5031106;28;20195;-76
2022/10/10 03:50:38;;;;;;;0.10;0.10;;;10.70;99.90;;;;;;5029593;28;20244;-77
2022/10/10 03:53:06;;;;;;;0.10;0.10;;;10.70;99.90;;;;;;5030269;28;20211;-77
2022/10/10 03:55:38;;;;;;;0.10;0.10;;;10.70;99.90;;;;;;5027724;28;20203;-76
2022/10/10 03:58:06;;;;;;;0.10;0.10;;;10.70;99.90;;;;;;5024338;28;20693;-76
2022/10/10 04:00:34;;;;;;;0.10;0.10;;;10.70;99.90;;;;;;5025345;28;20223;-77
2022/10/10 04:03:05;;;;;;;0.10;0.10;;;10.70;99.90;;;;;;5031836;28;20202;-76
2022/10/10 04:05:34;;;;;;;0.10;0.10;;;10.70;99.90;;;;;;5021894;28;20231;-75
2022/10/10 04:08:02;;;;;;;0.10;0.10;;;10.70;99.90;;;;;;5030798;28;20199;-77
2022/10/10 04:10:30;;;;;;;0.10;0.10;;;10.60;99.90;;;;;;5032083;28;20568;-78
2022/10/10 04:12:59;;;;;;;0.10;0.10;;;10.60;99.90;;;;;;5034102;28;20225;-77
2022/10/10 04:15:30;;;;;;;0.00;0.00;;;10.60;99.90;;;;;;5030834;28;20203;-77
2022/10/10 04:17:58;;;;;;;0.10;0.10;;;10.70;99.90;;;;;;5029639;28;20225;-76
2022/10/10 04:20:26;;;;;;;0.10;0.10;;;10.60;99.90;;;;;;5031127;28;20225;-76
2022/10/10 04:22:54;;;;;;;0.10;0.10;;;10.70;99.90;;;;;;5036955;22;20219;-74
2022/10/10 04:25:22;;;;;;;0.10;0.10;;;10.60;99.90;;;;;;5018077;28;20239;-73
2022/10/10 04:27:50;;;;;;;0.10;0.10;;;10.50;99.90;;;;;;5035042;28;20261;-76
2022/10/10 04:30:22;;;;;;;0.10;0.10;;;10.50;99.90;;;;;;5036411;28;20195;-76
2022/10/10 04:32:50;;;;;;;0.10;0.10;;;10.50;99.90;;;;;;5038429;28;20221;-76
2022/10/10 04:35:22;;;;;;;0.10;0.10;;;10.50;99.90;;;;;;5038912;28;20206;-76
2022/10/10 04:37:55;;;;;;;0.10;0.10;;;10.50;99.90;;;;;;5037155;28;20199;-75
2022/10/10 04:40:23;;;;;;;0.10;0.10;;;10.50;99.90;;;;;;5031243;28;20207;-75
2022/10/10 04:42:54;;;;;;;0.10;0.10;;;10.50;99.90;;;;;;5035394;28;20242;-74
2022/10/10 04:45:25;;;;;;;0.10;0.10;;;10.50;99.90;;;;;;5033061;28;20207;-74
2022/10/10 04:47:53;;;;;;;0.00;0.00;;;10.40;99.90;;;;;;5031474;28;20214;-74
2022/10/10 04:50:22;;;;;;;0.10;0.10;;;10.40;99.90;;;;;;5033904;28;20199;-74
2022/10/10 04:52:50;;;;;;;0.10;0.10;;;10.40;99.90;;;;;;5034720;28;20272;-74
2022/10/10 04:55:18;;;;;;;0.10;0.10;;;10.40;99.90;;;;;;5041458;28;20249;-74
2022/10/10 04:57:46;;;;;;;0.10;0.10;;;10.40;99.90;;;;;;5040253;28;20202;-74
2022/10/10 05:00:15;;;;;;;0.10;0.10;;;10.30;99.90;;;;;;5034008;28;20199;-74
2022/10/10 05:02:44;;;;;;;0.10;0.10;;;10.30;99.90;;;;;;5039386;28;20223;-75
2022/10/10 05:05:12;;;;;;;0.10;0.10;;;10.30;99.90;;;;;;5039659;28;20904;-75
2022/10/10 05:07:40;;;;;;;0.10;0.10;;;10.30;99.90;;;;;;5037978;28;20230;-75
2022/10/10 05:10:09;;;;;;;0.10;0.10;;;10.30;99.90;;;;;;5041050;28;20258;-74
2022/10/10 05:12:37;;;;;;;0.10;0.10;;;10.30;99.90;;;;;;5039086;28;20215;-75
2022/10/10 05:15:05;;;;;;;0.10;0.10;;;10.20;99.90;;;;;;5038914;28;20191;-75
2022/10/10 05:17:33;;;;;;;0.10;0.10;;;10.20;99.90;;;;;;5030699;28;20198;-75
2022/10/10 05:20:03;;;;;;;0.10;0.10;;;10.20;99.90;;;;;;5033007;28;20206;-74
2022/10/10 05:22:31;;;;;;;0.10;0.10;;;10.20;99.90;;;;;;5036619;28;20367;-75
2022/10/10 05:24:59;;;;;;;0.10;0.10;;;10.20;99.90;;;;;;5072191;28;20214;-76
2022/10/10 05:27:28;;;;;;;0.10;0.10;;;10.20;99.90;;;;;;5056567;28;20211;-77
2022/10/10 05:29:56;;;;;;;0.10;0.10;;;10.20;99.90;;;;;;5053152;28;20203;-76
2022/10/10 05:32:24;;;;;;;0.10;0.10;;;10.20;99.90;;;;;;5044303;28;20231;-74
2022/10/10 05:34:52;;;;;;;0.10;0.10;;;10.20;99.90;;;;;;5030850;28;20737;-74
2022/10/10 05:37:21;;;;;;;0.10;0.10;;;10.20;99.90;;;;;;5021095;28;20207;-74
2022/10/10 05:39:49;;;;;;;0.10;0.10;;;10.20;99.90;;;;;;5036632;28;20207;-74
2022/10/10 05:42:21;;;;;;;0.10;0.10;;;10.10;99.90;;;;;;5036857;28;20588;-74
2022/10/10 05:44:49;;;;;;;0.10;0.10;;;10.10;99.90;;;;;;5025982;28;20199;-74
2022/10/10 05:47:17;;;;;;;0.10;0.10;;;10.20;99.90;;;;;;5034828;28;20753;-74
2022/10/10 05:49:45;;;;;;;0.10;0.10;;;10.10;99.90;;;;;;5036604;28;20241;-74
2022/10/10 05:52:13;;;;;;;0.10;0.10;;;10.00;99.90;;;;;;5038909;28;20294;-75
2022/10/10 05:54:43;;;;;;;0.10;0.10;;;10.00;99.90;;;;;;5037539;28;20191;-75
2022/10/10 05:57:11;;;;;;;0.10;0.10;;;10.10;99.90;;;;;;5035397;28;20261;-74
2022/10/10 05:59:43;;;;;;;0.10;0.10;;;10.10;99.90;;;;;;5034862;28;20709;-74
2022/10/10 06:02:12;;;;;;;0.10;0.10;;;10.10;99.90;;;;;;5036292;28;20563;-74
2022/10/10 06:04:40;;;;;;;0.10;0.10;;;10.10;99.90;;;;;;5033411;28;20260;-74
2022/10/10 06:07:08;;;;;;;0.10;0.10;;;10.10;99.90;;;;;;5032209;28;20222;-74
2022/10/10 06:09:37;;;;;;;0.10;0.10;;;10.10;99.90;;;;;;5032022;28;20195;-74
2022/10/10 06:12:06;;;;;;;0.10;0.10;;;10.10;99.90;;;;;;5035035;28;20854;-74
2022/10/10 06:14:34;;;;;;;0.10;0.10;;;10.20;99.90;;;;;;5034894;28;20245;-74
2022/10/10 06:17:02;;;;;;;0.10;0.10;;;10.10;99.90;;;;;;5034592;28;20199;-75
2022/10/10 06:19:30;;;;;;;0.10;0.10;;;10.10;99.90;;;;;;5033041;28;20210;-74
2022/10/10 06:21:58;;;;;;;0.10;0.10;;;10.10;99.90;;;;;;5026931;28;20235;-74
2022/10/10 06:24:26;;;;;;;0.10;0.10;;;10.10;99.90;;;;;;5033831;28;20207;-74
2022/10/10 06:26:54;;;;;;;0.10;0.10;;;10.10;99.90;;;;;;5035615;28;20227;-74
2022/10/10 06:29:24;;;;;;;0.10;0.10;;;10.10;99.90;;;;;;5034683;28;20222;-74
2022/10/10 06:31:52;;;;;;;0.10;0.10;;;10.10;99.90;;;;;;5032302;28;20242;-74
2022/10/10 06:34:20;;;;;;;0.10;0.10;;;10.10;99.90;;;;;;5030665;28;20206;-74
2022/10/10 06:36:49;;;;;;;0.10;0.10;;;10.10;99.90;;;;;;5033896;28;20198;-74
2022/10/10 06:39:17;;;;;;;0.10;0.10;;;10.10;99.90;;;;;;5034236;28;20203;-74
2022/10/10 06:41:45;;;;;;;0.10;0.10;;;10.10;99.90;;;;;;5033154;28;20392;-74
2022/10/10 06:44:18;;;;;;;0.10;0.10;;;10.10;99.90;;;;;;5035620;28;20207;-74
2022/10/10 06:46:48;;;;;;;0.10;0.10;;;10.10;99.90;;;;;;5034382;28;20234;-74
2022/10/10 06:49:16;;;;;;;0.00;0.00;;;10.10;99.90;;;;;;5034023;28;20199;-74
2022/10/10 06:51:51;;;;;;;0.03;0.03;;;10.10;99.90;;;;;;5042990;28;20249;-74
2022/10/10 06:54:19;;;;;;;0.10;0.10;;;10.10;99.90;;;;;;5050194;28;20211;-74
2022/10/10 06:56:47;;;;;;;0.10;0.10;;;10.10;99.90;;;;;;5049727;28;20214;-74
2022/10/10 06:59:15;;;;;;;0.10;0.10;;;10.00;99.90;;;;;;5038078;28;20199;-74
2022/10/10 07:01:43;;;;;;;0.10;0.10;;;10.10;99.90;;;;;;5035554;28;20222;-74
2022/10/10 07:04:13;;;;;;;0.10;0.10;;;10.00;99.90;;;;;;5037110;28;20211;-74
2022/10/10 07:06:41;;;;;;;0.10;0.10;;;10.00;99.90;;;;;;5035513;28;20608;-74
2022/10/10 07:09:09;;;;;;;0.10;0.10;;;10.10;99.90;;;;;;5033905;28;20199;-74
2022/10/10 07:11:37;;;;;;;0.10;0.10;;;10.10;99.90;;;;;;5031959;28;20242;-74
2022/10/10 07:14:05;;;;;;;0.10;0.10;;;10.00;99.90;;;;;;5030255;28;20215;-74
2022/10/10 07:16:33;;;;;;;0.10;0.10;;;10.00;99.90;;;;;;5025879;28;20196;-75
2022/10/10 07:19:01;;;;;;;0.10;0.10;;;10.00;99.90;;;;;;5033127;28;20252;-74
2022/10/10 07:21:30;;;;;;;0.10;0.10;;;10.00;99.90;;;;;;5017730;28;20235;-76
2022/10/10 07:23:58;;;;;;;0.10;0.10;;;10.00;99.90;;;;;;5027004;28;20199;-74
2022/10/10 07:26:29;;;;;;;0.10;0.10;;;10.00;99.90;;;;;;5028359;28;20227;-75
2022/10/10 07:28:57;;;;;;;0.10;0.10;;;10.00;99.90;;;;;;5037307;28;20670;-74
2022/10/10 07:31:25;;;;;;;0.10;0.10;;;10.00;99.90;;;;;;5038860;28;20227;-74
2022/10/10 07:33:53;;;;;;;0.10;0.10;;;10.00;99.90;;;;;;5042335;28;20203;-74
2022/10/10 07:36:21;;;;;;;0.00;0.00;;;10.00;99.90;;;;;;5034788;28;20539;-74
2022/10/10 07:38:51;;;;;;;0.10;0.10;;;10.00;99.90;;;;;;5027603;28;20218;-74
2022/10/10 07:41:20;;;;;;;0.00;0.00;;;10.00;99.90;;;;;;5024297;28;20223;-74
2022/10/10 07:43:53;;;;;;;0.10;0.10;;;10.00;99.90;;;;;;5028982;28;20199;-74
2022/10/10 07:46:21;;;;;;;0.10;0.10;;;10.00;99.90;;;;;;5033458;28;20229;-74
2022/10/10 07:48:49;;;;;;;0.10;0.10;;;10.00;99.90;;;;;;5036203;28;20222;-74
2022/10/10 07:51:17;;;;;;;0.10;0.10;;;10.10;99.90;;;;;;5034167;28;20219;-74
2022/10/10 07:53:45;;;;;;;0.10;0.10;;;10.10;99.90;;;;;;5033136;28;20564;-74
2022/10/10 07:56:15;;;;;;;0.10;0.10;;;10.10;99.90;;;;;;5029814;28;20195;-74
2022/10/10 07:58:42;;;;;;;0.10;0.10;;;10.10;99.90;;;;;;5033531;28;20207;-74
2022/10/10 08:01:12;;;;;;;0.10;0.10;;;10.10;99.90;;;;;;5033564;28;20637;-74
2022/10/10 08:03:40;;;;;;;0.10;0.10;;;10.10;99.90;;;;;;5034367;28;21156;-74
2022/10/10 08:06:10;;;;;;;0.10;0.10;;;10.20;99.90;;;;;;5031075;28;20565;-74
2022/10/10 08:08:38;;;;;;;0.10;0.10;;;10.20;99.90;;;;;;5033897;28;20206;-74
2022/10/10 08:11:20;;;;;;;0.10;0.10;;;10.20;99.90;;;;;;5032432;28;20242;-75
2022/10/10 08:13:48;;;;;;;0.10;0.10;;;10.20;99.90;;;;;;5039496;28;20202;-74
2022/10/10 08:16:16;;;;;;;0.10;0.10;;;10.20;99.90;;;;;;5040295;28;20221;-74
2022/10/10 08:18:45;;;;;;;0.10;0.10;;;10.20;99.90;;;;;;5036329;28;20264;-74
2022/10/10 08:21:14;;;;;;;0.10;0.10;;;10.30;99.90;;;;;;5030491;28;20275;-74
2022/10/10 08:23:42;;;;;;;0.10;0.10;;;10.30;99.90;;;;;;5032485;28;20207;-74
2022/10/10 08:26:12;;;;;;;0.10;0.10;;;10.40;99.90;;;;;;5027781;28;20207;-74
2022/10/10 08:28:42;;;;;;;0.10;0.10;;;10.50;99.90;;;;;;5033022;28;20207;-75
2022/10/10 08:31:13;;;;;;;0.10;0.10;;;10.50;99.90;;;;;;5022546;28;20254;-74
2022/10/10 08:33:42;;;;;;;0.10;0.10;;;10.60;99.90;;;;;;5026220;28;20206;-75
2022/10/10 08:36:12;;;;;;;0.10;0.10;;;10.70;99.90;;;;;;5037707;28;20257;-75
2022/10/10 08:38:40;;;;;;;0.10;0.10;;;10.80;99.90;;;;;;5026892;28;20264;-74
2022/10/10 08:41:11;;;;;;;0.10;0.10;;;10.90;99.90;;;;;;5028415;28;20249;-75
2022/10/10 08:43:47;;;;;;;0.10;0.10;;;11.10;99.90;;;;;;5030093;28;20207;-75
2022/10/10 08:46:19;;;;;;;0.10;0.10;;;11.20;99.90;;;;;;5031189;28;20202;-75
2022/10/10 08:48:49;;;;;;;0.00;0.00;;;11.30;99.90;;;;;;5037182;28;20202;-74
2022/10/10 08:51:25;;;;;;;0.10;0.10;;;11.50;99.90;;;;;;5033199;28;20237;-74
2022/10/10 08:53:57;;;;;;;0.10;0.10;;;11.60;99.90;;;;;;5034104;28;20268;-74
2022/10/10 08:56:30;;;;;;;0.10;0.10;;;11.60;99.90;;;;;;5028765;28;20257;-74
2022/10/10 08:59:04;;;;;;;0.10;0.10;;;11.80;99.90;;;;;;5028746;28;20215;-76
2022/10/10 09:01:35;;;;;;;0.10;0.10;;;11.80;99.90;;;;;;5033027;28;20222;-74
2022/10/10 09:04:23;;;;;;;0.10;0.10;;;11.90;99.90;;;;;;5032625;28;20282;-74
2022/10/10 09:07:06;;;;;;;0.10;0.10;;;12.10;99.90;;;;;;5032694;28;20219;-74
2022/10/10 09:09:40;;;;;;;0.10;0.10;;;12.20;99.90;;;;;;5032183;28;20195;-74
2022/10/10 09:12:21;;;;;;;0.10;0.10;;;12.40;99.90;;;;;;5032038;28;20312;-74
2022/10/10 09:14:56;;;;;;;0.10;0.10;;;12.60;99.90;;;;;;5030818;28;20673;-74
2022/10/10 09:17:37;;;;;;;0.10;0.10;;;12.70;99.90;;;;;;5031921;28;20206;-75
2022/10/10 09:20:26;;;;;;;0.10;0.10;;;12.80;99.90;;;;;;5025577;28;20198;-74
2022/10/10 09:22:58;;;;;;;0.10;0.10;;;12.70;99.90;;;;;;5030354;28;20230;-74
2022/10/10 09:25:31;;;;;;;0.10;0.10;;;12.80;99.90;;;;;;5023673;28;20662;-74
2022/10/10 09:28:05;;;;;;;0.10;0.10;;;12.90;99.90;;;;;;5030481;28;20254;-74
2022/10/10 09:30:39;;;;;;;0.08;0.08;;;12.90;99.90;;;;;;5030357;28;20198;-74
2022/10/10 09:33:21;;;;;;;0.10;0.10;;;13.00;99.90;;;;;;5033396;28;20248;-74
2022/10/10 09:35:51;;;;;;;0.10;0.10;;;13.10;99.90;;;;;;5032445;28;20257;-75
2022/10/10 09:38:31;;;;;;;0.08;0.08;;;13.20;99.90;;;;;;5028431;28;20218;-74
2022/10/10 09:41:03;;;;;;;0.10;0.10;;;13.30;99.90;;;;;;5034643;28;20588;-74
2022/10/10 09:43:33;;;;;;;0.08;0.08;;;13.40;99.90;;;;;;5033611;28;20261;-75
2022/10/10 09:46:03;;;;;;;0.00;0.00;;;13.40;99.90;;;;;;5029137;28;20628;-75
2022/10/10 09:48:33;;;;;;;0.00;0.00;;;13.50;99.90;;;;;;5031465;28;20222;-75
2022/10/10 09:51:02;;;;;;;0.00;0.00;;;13.70;99.90;;;;;;5027497;28;20195;-75
2022/10/10 09:53:30;;;;;;;0.08;0.08;;;13.80;99.90;;;;;;5032841;28;20246;-75
2022/10/10 09:55:59;;;;;;;0.00;0.00;;;13.90;99.90;;;;;;5030395;28;20697;-75
2022/10/10 09:58:32;;;;;;;0.00;0.00;;;13.90;99.90;;;;;;5031181;28;20247;-75
2022/10/10 10:01:13;;;;;;;0.00;0.00;;;14.00;99.90;;;;;;5034782;28;20211;-73
2022/10/10 10:03:41;;;;;;;0.00;0.00;;;14.00;99.90;;;;;;5028315;28;20290;-73
2022/10/10 10:06:13;;;;;;;0.00;0.00;;;14.00;99.90;;;;;;5030262;28;20248;-74
2022/10/10 10:08:42;;;;;;;0.00;0.00;;;14.10;99.90;;;;;;5027498;28;20219;-75
2022/10/10 10:11:31;;;;;;;0.00;0.00;;;14.20;99.90;;;;;;5029062;28;20228;-74
2022/10/10 10:14:01;;;;;;;0.00;0.00;;;14.20;99.90;;;;;;5030791;28;20204;-75
2022/10/10 10:16:36;;;;;;;0.03;0.03;;;14.40;99.90;;;;;;5030879;28;20207;-74
2022/10/10 10:19:06;;;;;;;0.10;0.10;;;14.40;99.90;;;;;;5029059;28;20256;-75
2022/10/10 10:21:49;;;;;;;0.10;0.10;;;14.50;99.90;;;;;;5043358;22;20229;-76
2022/10/10 10:24:23;;;;;;;0.00;0.00;;;14.60;99.90;;;;;;5010960;28;20745;-76
2022/10/10 10:26:51;;;;;;;0.03;0.03;;;14.70;99.90;;;;;;5021658;28;20704;-77
2022/10/10 10:29:30;;;;;;;0.00;0.00;;;14.80;99.90;;;;;;5017056;28;20227;-75
2022/10/10 10:32:10;;;;;;;0.00;0.00;;;14.90;99.90;;;;;;5019826;28;20238;-75
2022/10/10 10:34:56;;;;;;;0.10;0.10;;;15.00;99.90;;;;;;5022254;28;20206;-76
2022/10/10 10:37:27;;;;;;;0.10;0.10;;;15.00;99.90;;;;;;5020905;28;20607;-78
2022/10/10 10:40:17;;;;;;;0.00;0.00;;;15.00;99.90;;;;;;5017671;28;20204;-76
2022/10/10 10:43:01;;;;;;;0.03;0.03;;;15.20;99.90;;;;;;5013488;28;20285;-75
2022/10/10 10:45:39;;;;;;;0.10;0.10;;;15.30;99.90;;;;;;5014846;28;20198;-75
2022/10/10 10:48:25;;;;;;;0.10;0.10;;;15.30;99.90;;;;;;5018057;28;20231;-75
2022/10/10 10:50:55;;;;;;;0.00;0.00;;;15.20;99.90;;;;;;5022566;28;20617;-75
2022/10/10 10:53:33;;;;;;;0.10;0.10;;;15.30;99.90;;;;;;5018553;28;20226;-77
2022/10/10 10:56:13;;;;;;;0.00;0.00;;;15.40;99.90;;;;;;5018919;28;20206;-75
2022/10/10 10:59:07;;;;;;;0.00;0.00;;;15.40;99.90;;;;;;5013764;28;20230;-75
2022/10/10 11:02:10;;;;;;;0.00;0.00;;;15.50;99.90;;;;;;5008304;28;20861;-75
2022/10/10 11:05:04;;;;;;;0.00;0.00;;;15.60;99.90;;;;;;5010917;28;20188;-75
2022/10/10 11:07:59;;;;;;;0.00;0.00;;;15.80;99.90;;;;;;5010285;28;20266;-76
2022/10/10 11:10:36;;;;;;;0.00;0.00;;;16.00;99.90;;;;;;5010868;28;20199;-76
2022/10/10 11:13:13;;;;;;;0.00;0.00;;;16.30;99.90;;;;;;5007405;28;20277;-76
2022/10/10 11:15:45;;;;;;;0.00;0.00;;;16.60;99.90;;;;;;5011042;28;20274;-76
2022/10/10 11:18:37;;;;;;;0.00;0.00;;;17.00;99.90;;;;;;4993902;28;20228;-76
2022/10/10 11:21:12;;;;;;;0.00;0.00;;;17.50;99.90;;;;;;4995571;28;20588;-76
2022/10/10 11:23:44;;;;;;;0.00;0.00;;;17.70;99.90;;;;;;5008792;28;20249;-76
2022/10/10 11:26:19;;;;;;;0.00;0.00;;;17.80;99.90;;;;;;5011261;28;20208;-76
2022/10/10 11:28:52;;;;;;;0.00;0.00;;;18.00;99.90;;;;;;5007616;28;20215;-76
2022/10/10 11:31:24;;;;;;;0.00;0.00;;;18.20;99.90;;;;;;4994270;28;20208;-76
2022/10/10 11:33:56;;;;;;;0.00;0.00;;;18.30;99.90;;;;;;4992056;28;20211;-76
2022/10/10 11:36:29;;;;;;;0.00;0.00;;;18.40;99.90;;;;;;5017955;28;20302;-76
2022/10/10 11:39:02;;;;;;;0.00;0.00;;;18.70;99.90;;;;;;4991526;28;20197;-77
2022/10/10 11:41:35;;;;;;;0.00;0.00;;;18.90;99.90;;;;;;4999271;28;21347;-76
2022/10/10 11:44:11;;;;;;;0.00;0.00;;;19.00;99.90;;;;;;5007803;28;20215;-76
2022/10/10 11:46:43;;;;;;;0.00;0.00;;;18.80;99.90;;;;;;5014954;28;20257;-76
2022/10/10 11:49:19;;;;;;;0.00;0.00;;;18.80;99.90;;;;;;5015621;28;20215;-76
2022/10/10 11:52:10;;;;;;;0.00;0.00;;;18.80;99.90;;;;;;5013622;28;20226;-76
2022/10/10 11:55:05;;;;;;;0.00;0.00;;;18.90;99.90;;;;;;5006714;28;20307;-77
2022/10/10 11:57:38;;;;;;;0.00;0.00;;;18.80;99.90;;;;;;5006762;28;20200;-76
2022/10/10 12:00:12;;;;;;;0.00;0.00;;;18.70;99.90;;;;;;4997727;28;20200;-77
2022/10/10 12:02:42;;;;;;;0.00;0.00;;;18.40;99.90;;;;;;5006050;28;20228;-76
2022/10/10 12:05:20;;;;;;;0.10;0.10;;;18.10;99.90;;;;;;5013514;28;20215;-76
2022/10/10 12:08:02;;;;;;;0.00;0.00;;;18.20;99.90;;;;;;5004171;28;20211;-77
2022/10/10 12:10:35;;;;;;;0.00;0.00;;;18.50;99.90;;;;;;4995435;28;20199;-76
2022/10/10 12:13:17;;;;;;;0.00;0.00;;;18.50;99.90;;;;;;5012644;28;20830;-77
2022/10/10 12:15:49;;;;;;;0.00;0.00;;;18.20;99.90;;;;;;5014162;28;20211;-76
2022/10/10 12:18:26;;;;;;;0.00;0.00;;;18.20;99.90;;;;;;5014947;28;20195;-77
2022/10/10 12:21:06;;;;;;;0.00;0.00;;;18.20;99.90;;;;;;5013096;28;20207;-77
2022/10/10 12:23:36;;;;;;;0.00;0.00;;;18.40;99.90;;;;;;5027054;28;20286;-77
2022/10/10 12:26:04;;;;;;;0.00;0.00;;;18.20;99.90;;;;;;5010385;28;20273;-76
2022/10/10 12:28:56;;;;;;;0.00;0.00;;;18.10;99.90;;;;;;4998659;28;20216;-76
2022/10/10 12:31:30;;;;;;;0.00;0.00;;;18.20;99.90;;;;;;5012583;28;20214;-77
2022/10/10 12:34:29;;;;;;;0.00;0.00;;;18.20;99.90;;;;;;5007194;28;20509;-76
2022/10/10 12:37:10;;;;;;;0.00;0.00;;;18.30;99.90;;;;;;5006808;28;20555;-77
2022/10/10 12:40:01;;;;;;;0.00;0.00;;;18.60;99.90;;;;;;5014113;28;20196;-76
2022/10/10 12:42:32;;;;;;;0.00;0.00;;;19.10;99.90;;;;;;5013053;28;20228;-77
2022/10/10 12:45:00;;;;;;;0.00;0.00;;;19.20;99.90;;;;;;5010710;28;20203;-77
2022/10/10 12:47:41;;;;;;;0.00;0.00;;;19.60;99.90;;;;;;5010220;28;20222;-77
2022/10/10 12:50:33;;;;;;;0.00;0.00;;;20.00;99.90;;;;;;5011184;28;20298;-76
2022/10/10 12:53:04;;;;;;;0.00;0.00;;;20.00;99.90;;;;;;5005361;28;20223;-76
2022/10/10 12:55:42;;;;;;;0.00;0.00;;;20.10;99.90;;;;;;5013314;28;20265;-77
2022/10/10 12:58:16;;;;;;;0.00;0.00;;;20.00;99.90;;;;;;5008016;28;20208;-78
2022/10/10 13:00:55;;;;;;;0.00;0.00;;;20.20;99.90;;;;;;5013831;28;20278;-77
2022/10/10 13:03:30;;;;;;;0.00;0.00;;;20.20;99.90;;;;;;5012052;28;20294;-78
2022/10/10 13:06:03;;;;;;;0.00;0.00;;;20.40;99.90;;;;;;5006293;28;20214;-77
2022/10/10 13:08:32;;;;;;;0.00;0.00;;;20.50;99.90;;;;;;5011830;28;20246;-77
2022/10/10 13:11:04;;;;;;;0.00;0.00;;;20.60;99.90;;;;;;5005766;28;20255;-77
2022/10/10 13:13:33;;;;;;;0.00;0.00;;;20.70;99.90;;;;;;5014196;28;20761;-77